Time;durP1;ratioP1;P1;durP2;ratioP2;P2;SDS_P1;SDS_P2;PMS_P1;PMS_P2;Temp;Humidity;BMP_temperature;BMP_pressure;BME280_temperature;BME280_humidity;BME280_pressure;Samples;Min_cycle;Max_cycle;Signal;HPM_P1;HPM_P2
2022/05/31 00:00:22;;;;;;;;;;;5.80;99.90;;;;;;5082421;28;20012;-74
2022/05/31 00:02:49;;;;;;;;;;;5.80;99.90;;;;;;5078905;28;20288;-73
2022/05/31 00:05:14;;;;;;;;;;;5.90;99.90;;;;;;5072648;28;19974;-74
2022/05/31 00:07:40;;;;;;;;;;;5.80;99.90;;;;;;5074631;28;19940;-74
2022/05/31 00:10:07;;;;;;;;;;;5.70;99.90;;;;;;5074757;28;20143;-74
2022/05/31 00:12:32;;;;;;;;;;;5.60;99.90;;;;;;5073977;28;20424;-74
2022/05/31 00:14:58;;;;;;;;;;;5.60;99.90;;;;;;5073615;28;19954;-74
2022/05/31 00:17:24;;;;;;;;;;;5.60;99.90;;;;;;5074602;28;19912;-74
2022/05/31 00:19:49;;;;;;;;;;;5.60;99.90;;;;;;5072877;28;19908;-74
2022/05/31 00:22:16;;;;;;;;;;;5.60;99.90;;;;;;5073793;28;20603;-74
2022/05/31 00:24:42;;;;;;;;;;;5.50;99.90;;;;;;5073438;28;19908;-74
2022/05/31 00:27:09;;;;;;;;;;;5.50;99.90;;;;;;5073938;28;19999;-73
2022/05/31 00:29:35;;;;;;;;;;;5.30;99.90;;;;;;5073911;28;19999;-74
2022/05/31 00:32:02;;;;;;;;;;;5.30;99.90;;;;;;5082518;28;20000;-74
2022/05/31 00:34:28;;;;;;;;;;;5.30;99.90;;;;;;5076396;28;19915;-74
2022/05/31 00:36:54;;;;;;;;;;;5.40;99.90;;;;;;5074030;28;19908;-74
2022/05/31 00:39:20;;;;;;;;;;;5.40;99.90;;;;;;5074016;28;19909;-73
2022/05/31 00:41:59;;;;;;;;;;;5.30;99.90;;;;;;5073211;28;19916;-74
2022/05/31 00:44:27;;;;;;;;;;;5.10;99.90;;;;;;5073158;28;19908;-74
2022/05/31 00:47:00;;;;;;;;;;;5.10;99.90;;;;;;5086639;28;19951;-73
2022/05/31 00:49:25;;;;;;;;;;;5.00;99.90;;;;;;5073930;28;19909;-74
2022/05/31 00:51:53;;;;;;;;;;;5.10;99.90;;;;;;5072694;28;20046;-74
2022/05/31 00:54:20;;;;;;;;;;;5.00;99.90;;;;;;5071797;28;20304;-74
2022/05/31 00:56:47;;;;;;;;;;;4.80;99.90;;;;;;5073443;28;20345;-75
2022/05/31 00:59:18;;;;;;;;;;;4.70;99.90;;;;;;5073062;28;19962;-74
2022/05/31 01:01:47;;;;;;;;;;;4.70;99.90;;;;;;5084185;28;20346;-74
2022/05/31 01:04:13;;;;;;;;;;;4.80;99.90;;;;;;5082338;28;19908;-75
2022/05/31 01:06:38;;;;;;;;;;;4.80;99.90;;;;;;5073564;28;19912;-74
2022/05/31 01:09:04;;;;;;;;;;;4.70;99.90;;;;;;5073469;28;19912;-74
2022/05/31 01:11:31;;;;;;;;;;;4.80;99.90;;;;;;5081447;28;19909;-74
2022/05/31 01:13:57;;;;;;;;;;;4.80;99.90;;;;;;5072691;28;19919;-75
2022/05/31 01:16:23;;;;;;;;;;;4.80;99.90;;;;;;5073219;28;19908;-74
2022/05/31 01:18:48;;;;;;;;;;;4.80;99.90;;;;;;5073435;28;19913;-75
2022/05/31 01:21:14;;;;;;;;;;;4.80;99.90;;;;;;5072660;28;20431;-74
2022/05/31 01:23:50;;;;;;;;;;;4.90;99.90;;;;;;5072353;28;19965;-74
2022/05/31 01:26:28;;;;;;;;;;;4.90;99.90;;;;;;5073200;28;20071;-74
2022/05/31 01:29:00;;;;;;;;;;;4.90;99.90;;;;;;5071922;28;19908;-75
2022/05/31 01:31:28;;;;;;;;;;;4.90;99.90;;;;;;5082413;28;19919;-74
2022/05/31 01:33:58;;;;;;;;;;;5.00;99.90;;;;;;5086546;28;20432;-75
2022/05/31 01:36:32;;;;;;;;;;;5.00;99.90;;;;;;5092352;28;20003;-75
2022/05/31 01:39:03;;;;;;;;;;;5.00;99.90;;;;;;5092325;28;20011;-74
2022/05/31 01:41:32;;;;;;;;;;;5.10;99.90;;;;;;5091635;28;19958;-75
2022/05/31 01:44:00;;;;;;;;;;;5.10;99.90;;;;;;5091471;28;19908;-74
2022/05/31 01:46:28;;;;;;;;;;;5.10;99.90;;;;;;5091608;28;20296;-75
2022/05/31 01:48:54;;;;;;;;;;;5.10;99.90;;;;;;5092115;28;19908;-72
2022/05/31 01:51:21;;;;;;;;;;;5.20;99.90;;;;;;5091493;28;20032;-71
2022/05/31 01:53:46;;;;;;;;;;;5.20;99.90;;;;;;5091223;28;19912;-72
2022/05/31 01:56:13;;;;;;;;;;;5.30;99.90;;;;;;5090526;28;19915;-72
2022/05/31 01:58:40;;;;;;;;;;;5.40;99.90;;;;;;5091803;28;19915;-73
2022/05/31 02:01:06;;;;;;;;;;;5.50;99.90;;;;;;5083232;28;20403;-73
2022/05/31 02:03:32;;;;;;;;;;;5.30;99.90;;;;;;5083508;28;19982;-74
2022/05/31 02:05:59;;;;;;;;;;;5.20;99.90;;;;;;5072225;28;19912;-73
2022/05/31 02:08:25;;;;;;;;;;;5.10;99.90;;;;;;5070632;28;20274;-73
2022/05/31 02:10:51;;;;;;;;;;;5.20;99.90;;;;;;5072304;28;20369;-73
2022/05/31 02:13:17;;;;;;;;;;;5.10;99.90;;;;;;5071143;28;19966;-73
2022/05/31 02:15:43;;;;;;;;;;;5.10;99.90;;;;;;5072033;28;19908;-73
2022/05/31 02:18:10;;;;;;;;;;;5.00;99.90;;;;;;5072144;28;19909;-72
2022/05/31 02:20:35;;;;;;;;;;;5.00;99.90;;;;;;5072090;28;20008;-73
2022/05/31 02:23:01;;;;;;;;;;;4.80;99.90;;;;;;5071480;28;19991;-73
2022/05/31 02:25:26;;;;;;;;;;;4.70;99.90;;;;;;5071290;28;19916;-74
2022/05/31 02:27:52;;;;;;;;;;;4.70;99.90;;;;;;5071988;28;19916;-73
2022/05/31 02:30:17;;;;;;;;;;;4.70;99.90;;;;;;5077982;28;19912;-73
2022/05/31 02:32:43;;;;;;;;;;;4.60;99.90;;;;;;5073466;28;19912;-73
2022/05/31 02:35:10;;;;;;;;;;;4.60;99.90;;;;;;5070098;28;19909;-74
2022/05/31 02:37:36;;;;;;;;;;;4.50;99.90;;;;;;5071907;28;19908;-73
2022/05/31 02:40:02;;;;;;;;;;;4.50;99.90;;;;;;5070551;28;19943;-74
2022/05/31 02:42:27;;;;;;;;;;;4.40;99.90;;;;;;5071251;28;19915;-73
2022/05/31 02:44:53;;;;;;;;;;;4.30;99.90;;;;;;5070953;28;19913;-73
2022/05/31 02:47:19;;;;;;;;;;;4.40;99.90;;;;;;5071545;28;19935;-73
2022/05/31 02:49:45;;;;;;;;;;;4.40;99.90;;;;;;5070463;28;19916;-73
2022/05/31 02:52:11;;;;;;;;;;;4.30;99.90;;;;;;5071321;28;20167;-73
2022/05/31 02:54:36;;;;;;;;;;;4.20;99.90;;;;;;5070928;28;19913;-73
2022/05/31 02:57:02;;;;;;;;;;;4.10;99.90;;;;;;5071532;28;19995;-74
2022/05/31 02:59:27;;;;;;;;;;;4.10;99.90;;;;;;5071569;28;19913;-73
2022/05/31 03:01:53;;;;;;;;;;;4.10;99.90;;;;;;5091689;28;19916;-73
2022/05/31 03:04:19;;;;;;;;;;;4.10;99.90;;;;;;5072308;28;19983;-73
2022/05/31 03:06:44;;;;;;;;;;;4.20;99.90;;;;;;5070419;28;19919;-73
2022/05/31 03:09:10;;;;;;;;;;;4.10;99.90;;;;;;5078575;28;19991;-74
2022/05/31 03:11:53;;;;;;;;;;;4.20;99.90;;;;;;5069826;28;19912;-72
2022/05/31 03:14:22;;;;;;;;;;;4.20;99.90;;;;;;5084309;28;19915;-73
2022/05/31 03:16:52;;;;;;;;;;;4.20;99.90;;;;;;5089391;28;19916;-73
2022/05/31 03:19:21;;;;;;;;;;;4.30;99.90;;;;;;5089565;28;20335;-73
2022/05/31 03:21:50;;;;;;;;;;;4.40;99.90;;;;;;5092570;28;20339;-73
2022/05/31 03:24:17;;;;;;;;;;;4.50;99.90;;;;;;5094184;28;20258;-73
2022/05/31 03:26:43;;;;;;;;;;;4.50;99.90;;;;;;5094955;28;19920;-73
2022/05/31 03:29:09;;;;;;;;;;;4.50;99.90;;;;;;5092802;28;19908;-73
2022/05/31 03:31:36;;;;;;;;;;;4.40;99.90;;;;;;5083639;28;19908;-73
2022/05/31 03:34:01;;;;;;;;;;;4.40;99.90;;;;;;5083913;28;19963;-73
2022/05/31 03:36:27;;;;;;;;;;;4.40;99.90;;;;;;5075343;28;19909;-73
2022/05/31 03:38:52;;;;;;;;;;;4.30;99.90;;;;;;5089727;28;20380;-73
2022/05/31 03:41:18;;;;;;;;;;;4.30;99.90;;;;;;5094340;28;19908;-74
2022/05/31 03:43:44;;;;;;;;;;;4.20;99.90;;;;;;5089007;28;19915;-74
2022/05/31 03:46:10;;;;;;;;;;;4.30;99.90;;;;;;5092636;28;19913;-73
2022/05/31 03:48:35;;;;;;;;;;;4.40;99.90;;;;;;5077264;28;20286;-74
2022/05/31 03:51:06;;;;;;;;;;;4.50;99.90;;;;;;5074915;28;19916;-73
2022/05/31 03:53:31;;;;;;;;;;;4.60;99.90;;;;;;5092039;28;20049;-73
2022/05/31 03:56:00;;;;;;;;;;;4.60;99.90;;;;;;5091130;28;20003;-73
2022/05/31 03:58:26;;;;;;;;;;;4.60;99.90;;;;;;5073208;28;19909;-74
2022/05/31 04:00:51;;;;;;;;;;;4.60;99.90;;;;;;5074707;28;19909;-74
2022/05/31 04:03:17;;;;;;;;;;;4.60;99.90;;;;;;5073458;28;20463;-73
2022/05/31 04:05:42;;;;;;;;;;;4.50;99.90;;;;;;5074593;28;19922;-73
2022/05/31 04:08:11;;;;;;;;;;;4.50;99.90;;;;;;5074500;28;20388;-74
2022/05/31 04:10:37;;;;;;;;;;;4.50;99.90;;;;;;5074166;28;20104;-73
2022/05/31 04:13:03;;;;;;;;;;;4.50;99.90;;;;;;5074063;28;20002;-73
2022/05/31 04:15:28;;;;;;;;;;;4.50;99.90;;;;;;5073971;28;19947;-73
2022/05/31 04:17:54;;;;;;;;;;;4.60;99.90;;;;;;5073499;28;19913;-73
2022/05/31 04:20:20;;;;;;;;;;;4.60;99.90;;;;;;5073298;28;19909;-73
2022/05/31 04:22:45;;;;;;;;;;;4.80;99.90;;;;;;5072550;28;19999;-74
2022/05/31 04:25:11;;;;;;;;;;;4.90;99.90;;;;;;5074735;28;19912;-73
2022/05/31 04:27:36;;;;;;;;;;;4.90;99.90;;;;;;5089906;28;20022;-74
2022/05/31 04:30:02;;;;;;;;;;;5.10;99.90;;;;;;5074061;28;19962;-73
2022/05/31 04:32:27;;;;;;;;;;;5.10;99.90;;;;;;5073907;28;19959;-73
2022/05/31 04:34:53;;;;;;;;;;;5.20;99.90;;;;;;5074062;28;19909;-74
2022/05/31 04:37:19;;;;;;;;;;;5.40;99.90;;;;;;5073050;28;19913;-74
2022/05/31 04:39:44;;;;;;;;;;;5.50;99.90;;;;;;5074289;28;20277;-73
2022/05/31 04:42:10;;;;;;;;;;;5.60;99.90;;;;;;5073726;28;19916;-74
2022/05/31 04:44:36;;;;;;;;;;;5.70;99.90;;;;;;5085251;28;19908;-72
2022/05/31 04:47:02;;;;;;;;;;;5.90;99.90;;;;;;5081086;28;20274;-73
2022/05/31 04:49:28;;;;;;;;;;;6.20;99.90;;;;;;5073680;28;20188;-73
2022/05/31 04:51:53;;;;;;;;;;;6.40;99.90;;;;;;5073576;28;19909;-74
2022/05/31 04:54:20;;;;;;;;;;;6.60;99.90;;;;;;5072809;28;20427;-73
2022/05/31 04:56:46;;;;;;;;;;;6.70;99.90;;;;;;5072498;28;19920;-74
2022/05/31 04:59:12;;;;;;;;;;;6.80;99.90;;;;;;5076921;28;19908;-73
2022/05/31 05:01:38;;;;;;;;;;;6.90;99.90;;;;;;5078854;28;19960;-74
2022/05/31 05:04:04;;;;;;;;;;;6.90;99.90;;;;;;5072720;28;19916;-74
2022/05/31 05:06:30;;;;;;;;;;;7.00;99.90;;;;;;5073831;28;19923;-74
2022/05/31 05:08:56;;;;;;;;;;;7.10;99.90;;;;;;5074104;28;19908;-73
2022/05/31 05:11:22;;;;;;;;;;;7.10;99.90;;;;;;5073086;28;19909;-73
2022/05/31 05:13:48;;;;;;;;;;;7.20;99.90;;;;;;5074633;28;19915;-74
2022/05/31 05:16:14;;;;;;;;;;;7.30;99.90;;;;;;5093007;28;19908;-74
2022/05/31 05:18:40;;;;;;;;;;;7.50;99.90;;;;;;5076886;28;19909;-74
2022/05/31 05:21:06;;;;;;;;;;;7.60;99.90;;;;;;5073548;28;20007;-74
2022/05/31 05:23:32;;;;;;;;;;;7.70;99.90;;;;;;5072871;28;19912;-74
2022/05/31 05:25:58;;;;;;;;;;;7.80;99.90;;;;;;5072614;28;19935;-73
2022/05/31 05:31:41;;;;;;;;;;;8.40;99.90;;;;;;5073551;28;19916;-73
2022/05/31 05:34:07;;;;;;;;;;;8.60;99.90;;;;;;5048351;28;19932;-72
2022/05/31 05:36:33;;;;;;;;;;;8.70;99.90;;;;;;5073353;28;19908;-73
2022/05/31 05:38:59;;;;;;;;;;;9.00;99.90;;;;;;5073347;28;19915;-73
2022/05/31 05:41:26;;;;;;;;;;;9.10;99.90;;;;;;5073948;28;19915;-73
2022/05/31 05:43:52;;;;;;;;;;;9.20;99.90;;;;;;5078195;28;19908;-73
2022/05/31 05:46:22;;;;;;;;;;;9.00;99.90;;;;;;5081325;28;20388;-73
2022/05/31 05:48:48;;;;;;;;;;;9.30;99.90;;;;;;5073173;28;19973;-74
2022/05/31 05:51:16;;;;;;;;;;;10.30;99.90;;;;;;5073121;28;19912;-73
2022/05/31 05:53:41;;;;;;;;;;;10.10;99.90;;;;;;5071501;28;20064;-73
2022/05/31 05:56:07;;;;;;;;;;;9.60;99.90;;;;;;5071548;28;20291;-73
2022/05/31 05:58:32;;;;;;;;;;;9.50;99.90;;;;;;5072904;28;19995;-74
2022/05/31 06:00:58;;;;;;;;;;;9.60;99.90;;;;;;5072910;28;19940;-74
2022/05/31 06:03:35;;;;;;;;;;;9.80;99.90;;;;;;5071859;28;20520;-73
2022/05/31 06:06:00;;;;;;;;;;;10.20;99.90;;;;;;5072940;28;19912;-74
2022/05/31 06:08:26;;;;;;;;;;;11.10;99.90;;;;;;5072894;28;20392;-74
2022/05/31 06:10:59;;;;;;;;;;;12.10;99.90;;;;;;5072633;28;20281;-74
2022/05/31 06:13:28;;;;;;;;;;;12.10;99.90;;;;;;5071599;28;19913;-74
2022/05/31 06:15:55;;;;;;;;;;;11.80;99.90;;;;;;5086380;28;19908;-74
2022/05/31 06:18:23;;;;;;;;;;;11.80;99.90;;;;;;5073255;28;19995;-74
2022/05/31 06:20:52;;;;;;;;;;;12.00;99.90;;;;;;5072160;28;20294;-74
2022/05/31 06:23:18;;;;;;;;;;;12.50;99.90;;;;;;5079501;28;19920;-73
2022/05/31 06:25:44;;;;;;;;;;;13.00;99.90;;;;;;5077521;28;19920;-74
2022/05/31 06:28:10;;;;;;;;;;;13.10;99.90;;;;;;5072507;28;19996;-74
2022/05/31 06:30:36;;;;;;;;;;;12.90;99.90;;;;;;5072155;28;19948;-74
2022/05/31 06:33:01;;;;;;;;;;;12.80;99.90;;;;;;5072284;28;20369;-75
2022/05/31 06:35:27;;;;;;;;;;;12.70;99.90;;;;;;5072056;28;19915;-75
2022/05/31 06:37:52;;;;;;;;;;;12.80;99.90;;;;;;5082234;28;19915;-75
2022/05/31 06:40:18;;;;;;;;;;;12.80;99.90;;;;;;5079526;28;19908;-75
2022/05/31 06:42:43;;;;;;;;;;;12.80;99.90;;;;;;5072547;28;20386;-72
2022/05/31 06:45:09;;;;;;;;;;;13.50;99.90;;;;;;5071914;28;20391;-72
2022/05/31 06:47:35;;;;;;;;;;;14.50;99.90;;;;;;5075751;28;19966;-74
2022/05/31 06:50:00;;;;;;;;;;;15.10;99.40;;;;;;5079062;28;20269;-74
2022/05/31 06:57:54;;;;;;;;;;;16.40;92.70;;;;;;5079653;28;19915;-74
2022/05/31 07:00:20;;;;;;;;;;;17.20;92.50;;;;;;5082735;28;20284;-74
2022/05/31 07:02:46;;;;;;;;;;;17.60;90.70;;;;;;5081284;28;19935;-74
2022/05/31 07:05:13;;;;;;;;;;;17.30;90.30;;;;;;5074764;28;19924;-74
2022/05/31 07:07:39;;;;;;;;;;;17.40;87.20;;;;;;5080865;28;20049;-74
2022/05/31 07:10:06;;;;;;;;;;;16.90;90.60;;;;;;5076660;28;19913;-74
2022/05/31 07:12:32;;;;;;;;;;;17.90;86.70;;;;;;5072982;28;20516;-74
2022/05/31 07:14:57;;;;;;;;;;;18.80;87.10;;;;;;5086035;28;19959;-74
2022/05/31 07:17:23;;;;;;;;;;;19.40;80.60;;;;;;5074223;28;19908;-74
2022/05/31 07:19:48;;;;;;;;;;;19.60;80.80;;;;;;5079413;28;19976;-74
2022/05/31 07:22:15;;;;;;;;;;;18.30;85.40;;;;;;5072445;28;19923;-74
2022/05/31 07:24:40;;;;;;;;;;;17.90;88.10;;;;;;5084996;28;20038;-74
2022/05/31 07:27:06;;;;;;;;;;;17.90;83.00;;;;;;5079062;28;20007;-74
2022/05/31 07:29:31;;;;;;;;;;;17.50;84.00;;;;;;5073575;28;19983;-74
2022/05/31 07:31:57;;;;;;;;;;;17.50;87.50;;;;;;5086883;28;19939;-74
2022/05/31 07:34:23;;;;;;;;;;;17.40;89.80;;;;;;5069979;28;19969;-74
2022/05/31 07:36:49;;;;;;;;;;;18.90;85.70;;;;;;5087854;28;19916;-74
2022/05/31 07:39:15;;;;;;;;;;;18.80;83.70;;;;;;5075933;28;19915;-74
2022/05/31 07:41:41;;;;;;;;;;;18.70;83.50;;;;;;5070581;28;20361;-74
2022/05/31 07:44:07;;;;;;;;;;;19.10;81.60;;;;;;5076151;28;19912;-74
2022/05/31 07:46:32;;;;;;;;;;;19.00;82.10;;;;;;5080313;28;19952;-74
2022/05/31 07:48:58;;;;;;;;;;;18.90;77.80;;;;;;5070582;28;19908;-74
2022/05/31 07:51:24;;;;;;;;;;;19.10;74.00;;;;;;5070356;28;19982;-74
2022/05/31 07:53:51;;;;;;;;;;;19.90;80.50;;;;;;5069735;28;19995;-74
2022/05/31 07:56:16;;;;;;;;;;;19.40;75.00;;;;;;5069554;28;19909;-74
2022/05/31 07:58:42;;;;;;;;;;;20.50;71.90;;;;;;5070610;28;20153;-75
2022/05/31 08:01:13;;;;;;;;;;;21.00;74.80;;;;;;5074160;28;19907;-74
2022/05/31 08:03:39;;;;;;;;;;;20.90;69.70;;;;;;5075350;28;20450;-75
2022/05/31 08:06:06;;;;;;;;;;;21.30;73.10;;;;;;5072070;28;19958;-75
2022/05/31 08:08:32;;;;;;;;;;;21.30;68.40;;;;;;5073786;28;19916;-75
2022/05/31 08:10:58;;;;;;;;;;;21.80;69.10;;;;;;5074198;28;20021;-74
2022/05/31 08:13:23;;;;;;;;;;;21.00;70.00;;;;;;5074510;28;19908;-75
2022/05/31 08:15:49;;;;;;;;;;;21.00;75.60;;;;;;5082529;28;19931;-75
2022/05/31 08:18:14;;;;;;;;;;;22.30;71.50;;;;;;5079243;28;19919;-75
2022/05/31 08:20:40;;;;;;;;;;;22.60;65.90;;;;;;5074110;28;19947;-75
2022/05/31 08:23:06;;;;;;;;;;;21.60;69.10;;;;;;5072438;28;20037;-75
2022/05/31 08:25:33;;;;;;;;;;;21.60;69.40;;;;;;5075033;28;19982;-76
2022/05/31 08:28:00;;;;;;;;;;;23.10;67.80;;;;;;5074051;28;19908;-76
2022/05/31 08:30:25;;;;;;;;;;;23.80;67.50;;;;;;5087832;28;19915;-76
2022/05/31 08:32:51;;;;;;;;;;;24.20;65.80;;;;;;5079782;28;19909;-76
2022/05/31 08:35:16;;;;;;;;;;;24.40;66.00;;;;;;5072897;28;20316;-75
2022/05/31 08:37:42;;;;;;;;;;;23.90;63.80;;;;;;5071972;28;19908;-75
2022/05/31 08:40:08;;;;;;;;;;;24.00;64.10;;;;;;5073662;28;19909;-75
2022/05/31 08:42:37;;;;;;;;;;;23.70;70.30;;;;;;5071486;28;20351;-75
2022/05/31 08:45:13;;;;;;;;;;;24.70;64.50;;;;;;5081485;28;19913;-75
2022/05/31 08:47:46;;;;;;;;;;;25.70;61.60;;;;;;5078645;28;19915;-75
2022/05/31 08:53:26;;;;;;;;;;;24.20;62.80;;;;;;5080304;28;19920;-75
2022/05/31 08:58:40;;;;;;;;;;;25.20;63.10;;;;;;5092616;28;19915;-75
2022/05/31 09:01:06;;;;;;;;;;;26.10;63.20;;;;;;5092442;28;19965;-75
2022/05/31 09:03:36;;;;;;;;;;;26.20;62.90;;;;;;5091450;28;19908;-75
2022/05/31 09:06:06;;;;;;;;;;;25.20;63.40;;;;;;5090677;28;20003;-75
2022/05/31 09:08:51;;;;;;;;;;;23.60;66.20;;;;;;5092741;28;19954;-75
2022/05/31 09:11:20;;;;;;;;;;;22.00;68.10;;;;;;5091272;28;20362;-75
2022/05/31 09:13:51;;;;;;;;;;;22.10;66.00;;;;;;5083558;28;19909;-75
2022/05/31 09:16:22;;;;;;;;;;;23.30;68.50;;;;;;5088217;28;19986;-75
2022/05/31 09:18:50;;;;;;;;;;;24.00;70.90;;;;;;5072075;28;19909;-75
2022/05/31 09:21:20;;;;;;;;;;;24.10;70.60;;;;;;5072579;28;19912;-75
2022/05/31 09:23:46;;;;;;;;;;;24.90;66.30;;;;;;5070448;28;19962;-75
2022/05/31 09:26:25;;;;;;;;;;;24.20;63.20;;;;;;5071205;28;19913;-75
2022/05/31 09:29:00;;;;;;;;;;;23.30;66.00;;;;;;5073913;28;20309;-75
2022/05/31 09:31:37;;;;;;;;;;;22.60;66.60;;;;;;5087921;28;19909;-75
2022/05/31 09:34:06;;;;;;;;;;;23.30;65.50;;;;;;5073837;28;19920;-75
2022/05/31 09:36:45;;;;;;;;;;;22.40;67.10;;;;;;5072469;28;19908;-75
2022/05/31 09:39:10;;;;;;;;;;;21.90;67.00;;;;;;5085810;28;19908;-75
2022/05/31 09:41:43;;;;;;;;;;;21.30;65.90;;;;;;5091921;28;19919;-75
2022/05/31 09:44:08;;;;;;;;;;;21.50;73.60;;;;;;5077185;28;20376;-75
2022/05/31 09:46:40;;;;;;;;;;;22.00;69.70;;;;;;5074734;28;19913;-75
2022/05/31 09:49:31;;;;;;;;;;;22.40;69.30;;;;;;5072287;28;20377;-75
2022/05/31 09:51:57;;;;;;;;;;;23.50;72.20;;;;;;5066291;28;20289;-75
2022/05/31 09:57:21;;;;;;;;;;;24.60;60.20;;;;;;5091313;28;19920;-75
2022/05/31 09:59:49;;;;;;;;;;;24.00;68.30;;;;;;5089907;28;19918;-76
2022/05/31 10:02:18;;;;;;;;;;;22.20;61.60;;;;;;5089280;28;20185;-76
2022/05/31 10:04:44;;;;;;;;;;;23.60;68.60;;;;;;5075225;28;20373;-76
2022/05/31 10:07:10;;;;;;;;;;;24.30;63.10;;;;;;5071685;28;20015;-76
2022/05/31 10:09:35;;;;;;;;;;;24.30;63.90;;;;;;5072019;28;20004;-76
2022/05/31 10:12:13;;;;;;;;;;;25.90;65.60;;;;;;5070210;28;19997;-76
2022/05/31 10:14:49;;;;;;;;;;;26.40;63.50;;;;;;5082904;28;20365;-76
2022/05/31 10:17:33;;;;;;;;;;;26.00;63.70;;;;;;5079985;28;19908;-77
2022/05/31 10:20:09;;;;;;;;;;;25.20;60.00;;;;;;5071789;28;19952;-77
2022/05/31 10:22:35;;;;;;;;;;;25.90;60.40;;;;;;5085315;28;20296;-78
2022/05/31 10:25:18;;;;;;;;;;;26.30;55.90;;;;;;5090954;28;20412;-76
2022/05/31 10:27:44;;;;;;;;;;;25.80;59.30;;;;;;5091499;28;19985;-76
2022/05/31 10:30:15;;;;;;;;;;;25.50;52.60;;;;;;5082303;28;20368;-76
2022/05/31 10:32:49;;;;;;;;;;;25.80;52.80;;;;;;5078636;28;19943;-75
2022/05/31 10:35:28;;;;;;;;;;;26.70;53.90;;;;;;5071152;28;20388;-76
2022/05/31 10:38:03;;;;;;;;;;;26.50;52.80;;;;;;5071395;28;20375;-75
2022/05/31 10:40:43;;;;;;;;;;;24.70;55.90;;;;;;5073249;28;19908;-76
2022/05/31 10:43:25;;;;;;;;;;;23.60;58.20;;;;;;5074722;28;20322;-76
2022/05/31 10:45:51;;;;;;;;;;;24.80;56.40;;;;;;5075989;28;19912;-75
2022/05/31 10:48:17;;;;;;;;;;;24.50;60.60;;;;;;5080378;28;20439;-76
2022/05/31 10:51:01;;;;;;;;;;;24.80;56.80;;;;;;5078649;28;19912;-75
2022/05/31 10:53:29;;;;;;;;;;;22.90;60.20;;;;;;5094240;28;19944;-75
2022/05/31 10:56:09;;;;;;;;;;;21.60;61.60;;;;;;5097202;28;19912;-75
2022/05/31 10:58:40;;;;;;;;;;;21.70;61.60;;;;;;5096339;28;19968;-75
2022/05/31 11:01:06;;;;;;;;;;;21.00;62.30;;;;;;5096902;28;19987;-75
2022/05/31 11:03:38;;;;;;;;;;;21.30;62.00;;;;;;5103052;28;19896;-75
2022/05/31 11:06:08;;;;;;;;;;;20.90;63.10;;;;;;5116566;28;20099;-76
2022/05/31 11:11:55;;;;;;;;;;;22.70;68.40;;;;;;5116458;28;19911;-75
2022/05/31 11:14:39;;;;;;;;;;;21.40;65.10;;;;;;5114469;28;19911;-74
2022/05/31 11:17:30;;;;;;;;;;;20.60;66.10;;;;;;5097843;28;20094;-75
2022/05/31 11:19:55;;;;;;;;;;;21.10;65.80;;;;;;5110780;28;19935;-76
2022/05/31 11:22:44;;;;;;;;;;;23.90;66.20;;;;;;5109575;28;19908;-75
2022/05/31 11:25:09;;;;;;;;;;;23.70;61.50;;;;;;5096676;28;19959;-76
2022/05/31 11:28:01;;;;;;;;;;;23.30;62.90;;;;;;5096068;28;19909;-76
2022/05/31 11:30:30;;;;;;;;;;;23.50;59.50;;;;;;5097592;28;19897;-75
2022/05/31 11:33:07;;;;;;;;;;;24.70;61.90;;;;;;5111999;28;19912;-76
2022/05/31 11:35:36;;;;;;;;;;;23.60;57.40;;;;;;5111327;28;19920;-76
2022/05/31 11:38:07;;;;;;;;;;;24.40;60.00;;;;;;5116384;28;19897;-76
2022/05/31 11:40:43;;;;;;;;;;;24.10;62.00;;;;;;5116736;28;19935;-77
2022/05/31 11:43:24;;;;;;;;;;;24.60;60.00;;;;;;5116861;28;19908;-74
2022/05/31 11:46:01;;;;;;;;;;;24.40;61.70;;;;;;5120513;28;19908;-76
2022/05/31 11:48:33;;;;;;;;;;;25.50;63.20;;;;;;5101155;28;19908;-76
2022/05/31 11:50:58;;;;;;;;;;;24.50;57.20;;;;;;5114069;28;19900;-76
2022/05/31 11:53:27;;;;;;;;;;;24.70;61.20;;;;;;5119483;28;19901;-76
2022/05/31 11:55:58;;;;;;;;;;;23.60;60.40;;;;;;5120408;28;19963;-76
2022/05/31 11:58:30;;;;;;;;;;;24.80;61.60;;;;;;5120221;28;19916;-73
2022/05/31 12:01:11;;;;;;;;;;;24.30;60.60;;;;;;5118756;28;19916;-76
2022/05/31 12:03:56;;;;;;;;;;;24.00;63.60;;;;;;5117370;28;19961;-74
2022/05/31 12:06:28;;;;;;;;;;;25.80;57.90;;;;;;5099453;28;19905;-78
2022/05/31 12:09:03;;;;;;;;;;;26.90;57.80;;;;;;5099877;28;19919;-77
2022/05/31 12:11:55;;;;;;;;;;;27.20;54.20;;;;;;5106588;28;19904;-78
2022/05/31 12:14:22;;;;;;;;;;;25.00;58.20;;;;;;5112239;28;19924;-75
2022/05/31 12:16:48;;;;;;;;;;;24.80;59.00;;;;;;5110629;28;19897;-75
2022/05/31 12:19:34;;;;;;;;;;;24.40;55.60;;;;;;5102752;28;19896;-76
2022/05/31 12:22:10;;;;;;;;;;;24.90;59.40;;;;;;5099211;28;19920;-75
2022/05/31 12:24:45;;;;;;;;;;;23.90;60.70;;;;;;5112717;28;19934;-75
2022/05/31 12:27:14;;;;;;;;;;;24.30;56.00;;;;;;5114081;28;20397;-74
2022/05/31 12:29:45;;;;;;;;;;;24.60;59.10;;;;;;5082073;28;19970;-75
2022/05/31 12:32:29;;;;;;;;;;;26.50;57.00;;;;;;5090586;28;19935;-76
2022/05/31 12:34:56;;;;;;;;;;;27.30;51.60;;;;;;5075428;28;19909;-76
2022/05/31 12:37:21;;;;;;;;;;;25.70;55.60;;;;;;5076501;28;19908;-76
2022/05/31 12:39:50;;;;;;;;;;;24.30;57.90;;;;;;5076390;28;19913;-76
2022/05/31 12:42:15;;;;;;;;;;;25.60;55.50;;;;;;5079463;28;20004;-75
2022/05/31 12:44:42;;;;;;;;;;;25.50;53.10;;;;;;5087222;28;19956;-75
2022/05/31 12:47:24;;;;;;;;;;;25.20;53.10;;;;;;5082993;28;19989;-75
2022/05/31 12:49:50;;;;;;;;;;;23.50;57.60;;;;;;5074998;28;19908;-76
2022/05/31 12:55:32;;;;;;;;;;;24.40;56.50;;;;;;5086626;28;19912;-76
2022/05/31 13:00:46;;;;;;;;;;;27.00;51.20;;;;;;5087265;28;19954;-78
2022/05/31 13:03:30;;;;;;;;;;;26.10;51.50;;;;;;5074213;28;20320;-78
2022/05/31 13:06:14;;;;;;;;;;;25.70;53.10;;;;;;5074930;28;19913;-78
2022/05/31 13:08:48;;;;;;;;;;;25.10;54.80;;;;;;5086383;28;20295;-76
2022/05/31 13:19:37;;;;;;;;;;;25.10;55.40;;;;;;5074648;28;19915;-76
2022/05/31 13:22:05;;;;;;;;;;;23.80;56.40;;;;;;5082738;28;19916;-78
2022/05/31 13:24:31;;;;;;;;;;;26.00;52.10;;;;;;5091583;28;20551;-76
2022/05/31 13:26:58;;;;;;;;;;;29.70;44.70;;;;;;5091375;28;19920;-77
2022/05/31 13:29:24;;;;;;;;;;;31.00;43.30;;;;;;5086954;28;19961;-77
2022/05/31 13:31:54;;;;;;;;;;;31.10;45.10;;;;;;5077969;28;19908;-77
2022/05/31 13:34:34;;;;;;;;;;;32.30;44.60;;;;;;5087286;28;20002;-77
2022/05/31 13:37:01;;;;;;;;;;;28.20;45.70;;;;;;5074858;28;19952;-77
2022/05/31 13:39:26;;;;;;;;;;;29.70;44.50;;;;;;5072507;28;19916;-77
2022/05/31 13:41:54;;;;;;;;;;;29.10;45.30;;;;;;5090183;28;19912;-76
2022/05/31 13:44:21;;;;;;;;;;;29.90;46.60;;;;;;5089119;28;19912;-78
2022/05/31 13:46:48;;;;;;;;;;;29.40;44.10;;;;;;5086105;28;19951;-78
2022/05/31 13:49:25;;;;;;;;;;;25.90;48.40;;;;;;5093823;28;19912;-77
2022/05/31 13:51:52;;;;;;;;;;;25.00;49.40;;;;;;5086415;28;20393;-77
2022/05/31 13:54:21;;;;;;;;;;;22.70;57.80;;;;;;5089401;28;19915;-78
2022/05/31 13:56:49;;;;;;;;;;;22.30;58.00;;;;;;5073537;28;19970;-77
2022/05/31 13:59:35;;;;;;;;;;;24.20;54.10;;;;;;5072956;28;20071;-76
2022/05/31 14:02:01;;;;;;;;;;;24.50;52.30;;;;;;5080278;28;19915;-76
2022/05/31 14:04:31;;;;;;;;;;;23.30;58.40;;;;;;5074381;28;19916;-76
2022/05/31 14:06:56;;;;;;;;;;;22.70;56.70;;;;;;5072874;28;19916;-76
2022/05/31 14:09:32;;;;;;;;;;;21.60;55.60;;;;;;5086798;28;19909;-77
2022/05/31 14:11:59;;;;;;;;;;;20.90;55.80;;;;;;5085954;28;19912;-77
2022/05/31 14:14:29;;;;;;;;;;;21.10;58.50;;;;;;5082416;28;19916;-78
2022/05/31 14:16:57;;;;;;;;;;;21.30;59.00;;;;;;5084856;28;19909;-78
2022/05/31 14:19:24;;;;;;;;;;;21.70;59.60;;;;;;5086473;28;19908;-76
2022/05/31 14:21:52;;;;;;;;;;;21.80;59.50;;;;;;5082792;28;20009;-76
2022/05/31 14:24:19;;;;;;;;;;;21.50;57.70;;;;;;5071515;28;19912;-76
2022/05/31 14:26:46;;;;;;;;;;;21.40;57.30;;;;;;5071627;28;19916;-76
2022/05/31 14:29:14;;;;;;;;;;;21.40;60.80;;;;;;5077990;28;19961;-77
2022/05/31 14:31:40;;;;;;;;;;;21.20;58.20;;;;;;5080836;28;19962;-77
2022/05/31 14:34:07;;;;;;;;;;;21.90;59.90;;;;;;5083130;28;19942;-77
2022/05/31 14:36:34;;;;;;;;;;;21.70;58.40;;;;;;5072927;28;19990;-77
2022/05/31 14:39:02;;;;;;;;;;;21.30;58.80;;;;;;5074172;28;20553;-75
2022/05/31 14:41:40;;;;;;;;;;;21.60;59.20;;;;;;5090934;28;19919;-76
2022/05/31 14:44:24;;;;;;;;;;;21.60;58.00;;;;;;5083536;28;19908;-76
2022/05/31 14:46:49;;;;;;;;;;;21.20;59.70;;;;;;5090723;28;20002;-77
2022/05/31 14:49:18;;;;;;;;;;;20.70;58.10;;;;;;5092925;28;19945;-77
2022/05/31 14:51:43;;;;;;;;;;;20.50;57.20;;;;;;5072974;28;20006;-77
2022/05/31 14:54:29;;;;;;;;;;;20.50;60.00;;;;;;5070345;28;20007;-77
2022/05/31 14:56:56;;;;;;;;;;;20.60;60.40;;;;;;5075955;28;19908;-77
2022/05/31 14:59:23;;;;;;;;;;;20.40;58.80;;;;;;5091355;28;19915;-78
2022/05/31 15:01:51;;;;;;;;;;;20.10;57.80;;;;;;5069365;28;19908;-77
2022/05/31 15:04:17;;;;;;;;;;;19.70;58.00;;;;;;5075381;28;19935;-77
2022/05/31 15:06:43;;;;;;;;;;;19.40;59.90;;;;;;5077069;28;20381;-77